createdAt,value
2018-05-29T00:02:19.544Z,23.10
2018-05-29T00:04:47.060Z,23.10
2018-05-29T00:07:14.605Z,23.00
2018-05-29T00:09:42.116Z,22.90
2018-05-29T00:12:09.673Z,22.90
2018-05-29T00:14:37.179Z,22.90
2018-05-29T00:19:37.696Z,22.70
2018-05-29T00:22:05.199Z,22.70
2018-05-29T00:24:32.748Z,22.70
2018-05-29T00:27:00.258Z,22.60
2018-05-29T00:29:27.793Z,22.60
2018-05-29T00:31:56.064Z,22.60
2018-05-29T00:34:23.610Z,22.60
2018-05-29T00:36:51.124Z,22.60
2018-05-29T00:39:18.679Z,22.60
2018-05-29T00:41:46.187Z,22.60
2018-05-29T00:44:13.726Z,22.60
2018-05-29T00:46:41.228Z,22.50
2018-05-29T00:49:08.775Z,22.50
2018-05-29T00:51:36.313Z,22.40
2018-05-29T00:54:03.863Z,22.40
2018-05-29T00:56:32.145Z,22.40
2018-05-29T00:58:59.661Z,22.30
2018-05-29T01:01:27.216Z,22.20
2018-05-29T01:03:54.775Z,22.20
2018-05-29T01:06:22.319Z,22.20
2018-05-29T01:08:50.584Z,22.10
2018-05-29T01:11:18.983Z,22.10
2018-05-29T01:13:46.521Z,22.00
2018-05-29T01:16:14.071Z,22.00
2018-05-29T01:18:41.590Z,22.00
2018-05-29T01:21:09.129Z,22.00
2018-05-29T01:23:36.638Z,21.90
2018-05-29T01:26:04.195Z,21.90
2018-05-29T01:28:31.697Z,21.90
2018-05-29T01:31:00.019Z,21.90
2018-05-29T01:33:27.528Z,21.90
2018-05-29T01:35:55.076Z,21.80
2018-05-29T01:38:23.373Z,21.70
2018-05-29T01:40:51.688Z,21.70
2018-05-29T01:43:19.194Z,21.70
2018-05-29T01:45:46.730Z,21.70
2018-05-29T01:48:14.229Z,21.70
2018-05-29T01:50:41.770Z,21.70
2018-05-29T01:53:09.301Z,21.60
2018-05-29T01:55:36.812Z,21.60
2018-05-29T01:58:04.342Z,21.60
2018-05-29T02:00:31.866Z,21.60
2018-05-29T02:02:59.401Z,21.50
2018-05-29T02:05:27.814Z,21.50
2018-05-29T02:07:55.380Z,21.60
2018-05-29T02:10:22.886Z,21.60
2018-05-29T02:12:50.560Z,21.50
2018-05-29T02:15:18.107Z,21.50
2018-05-29T02:17:45.654Z,21.50
2018-05-29T02:20:13.868Z,21.40
2018-05-29T02:22:41.407Z,21.40
2018-05-29T02:25:08.905Z,21.40
2018-05-29T02:27:36.436Z,21.40
2018-05-29T02:30:04.356Z,21.40
2018-05-29T02:32:33.573Z,21.30
2018-05-29T02:35:01.075Z,21.30
2018-05-29T02:37:28.574Z,21.30
2018-05-29T02:39:56.880Z,21.20
2018-05-29T02:42:24.523Z,21.20
2018-05-29T02:44:52.832Z,21.20
2018-05-29T02:47:20.338Z,21.20
2018-05-29T02:49:47.924Z,21.20
2018-05-29T02:52:16.191Z,21.20
2018-05-29T02:54:44.666Z,21.10
2018-05-29T02:57:12.931Z,21.10
2018-05-29T02:59:40.475Z,21.10
2018-05-29T03:02:07.988Z,21.10
2018-05-29T03:04:35.558Z,21.20
2018-05-29T03:07:03.099Z,21.20
2018-05-29T03:09:30.842Z,21.20
2018-05-29T03:11:59.814Z,21.20
2018-05-29T03:14:27.359Z,21.20
2018-05-29T03:16:54.889Z,21.20
2018-05-29T03:19:22.431Z,21.20
2018-05-29T03:21:49.924Z,21.20
2018-05-29T03:24:17.570Z,21.30
2018-05-29T03:26:45.118Z,21.40
2018-05-29T03:29:12.655Z,21.50
2018-05-29T03:31:40.162Z,21.60
2018-05-29T03:34:07.659Z,21.60
2018-05-29T03:36:35.196Z,21.70
2018-05-29T03:39:02.734Z,21.80
2018-05-29T03:41:30.280Z,21.90
2018-05-29T03:43:57.807Z,21.90
2018-05-29T03:46:25.366Z,22.00
2018-05-29T03:48:53.622Z,22.30
2018-05-29T03:51:21.251Z,22.30
2018-05-29T03:53:48.696Z,22.40
2018-05-29T03:56:16.239Z,22.60
2018-05-29T03:58:43.743Z,22.70
2018-05-29T04:01:11.301Z,22.90
2018-05-29T04:03:38.806Z,23.00
2018-05-29T04:06:07.123Z,23.20
2018-05-29T04:08:34.629Z,23.10
2018-05-29T04:11:02.328Z,23.30
2018-05-29T04:13:29.849Z,23.30
2018-05-29T04:15:58.155Z,23.60
2018-05-29T04:18:25.662Z,23.50
2018-05-29T04:20:53.212Z,23.60
2018-05-29T04:23:20.722Z,23.70
2018-05-29T04:25:48.251Z,23.80
2018-05-29T04:28:15.794Z,23.90
2018-05-29T04:30:43.299Z,23.90
2018-05-29T04:33:10.850Z,24.00
2018-05-29T04:35:38.385Z,24.10
2018-05-29T04:38:06.064Z,24.20
2018-05-29T04:40:34.333Z,24.40
2018-05-29T04:43:02.654Z,24.50
2018-05-29T04:45:30.179Z,24.40
2018-05-29T04:47:57.726Z,24.50
2018-05-29T04:50:25.242Z,24.60
2018-05-29T04:52:52.794Z,24.70
2018-05-29T04:55:20.299Z,24.80
2018-05-29T04:57:47.850Z,24.80
2018-05-29T05:00:15.347Z,24.80
2018-05-29T05:02:42.902Z,24.90
2018-05-29T05:05:10.403Z,24.90
2018-05-29T05:07:37.951Z,24.90
2018-05-29T05:10:05.455Z,25.00
2018-05-29T05:12:32.967Z,25.10
2018-05-29T05:15:01.481Z,25.10
2018-05-29T05:17:28.996Z,25.20
2018-05-29T05:19:56.619Z,25.20
2018-05-29T05:22:24.886Z,25.30
2018-05-29T05:24:52.448Z,25.30
2018-05-29T05:27:19.946Z,25.30
2018-05-29T05:29:47.491Z,25.40
2018-05-29T05:32:15.758Z,25.50
2018-05-29T05:34:44.059Z,25.60
2018-05-29T05:37:11.564Z,25.60
2018-05-29T05:39:39.124Z,25.70
2018-05-29T05:42:06.625Z,25.70
2018-05-29T05:44:34.173Z,25.80
2018-05-29T05:47:01.683Z,25.80
2018-05-29T05:49:29.184Z,25.70
2018-05-29T05:51:57.492Z,25.90
2018-05-29T05:54:24.997Z,25.80
2018-05-29T05:56:52.544Z,25.90
2018-05-29T05:59:20.042Z,26.00
2018-05-29T06:01:48.354Z,26.10
2018-05-29T06:04:15.863Z,26.10
2018-05-29T06:06:43.429Z,26.10
2018-05-29T06:09:12.488Z,26.20
2018-05-29T06:11:40.028Z,26.20
2018-05-29T06:14:07.521Z,26.30
2018-05-29T06:16:35.061Z,26.40
2018-05-29T06:19:02.571Z,26.40
2018-05-29T06:21:30.882Z,26.50
2018-05-29T06:23:58.375Z,26.50
2018-05-29T06:26:25.883Z,26.50
2018-05-29T06:28:53.447Z,26.60
2018-05-29T06:31:20.957Z,26.60
2018-05-29T06:33:49.282Z,26.70
2018-05-29T06:36:17.610Z,26.70
2018-05-29T06:38:45.190Z,26.70
2018-05-29T06:41:12.678Z,26.80
2018-05-29T06:43:40.244Z,26.90
2018-05-29T06:46:07.747Z,27.00
2018-05-29T06:48:35.295Z,27.10
2018-05-29T06:51:02.804Z,27.20
2018-05-29T06:53:30.359Z,27.30
2018-05-29T06:55:57.891Z,27.30
2018-05-29T06:58:26.297Z,27.50
2018-05-29T07:00:53.802Z,27.50
2018-05-29T07:03:21.347Z,27.60
2018-05-29T07:05:48.857Z,27.70
2018-05-29T07:08:16.763Z,27.70
2018-05-29T07:10:44.270Z,27.80
2018-05-29T07:13:11.760Z,27.80
2018-05-29T07:15:39.299Z,27.90
2018-05-29T07:18:06.802Z,27.90
2018-05-29T07:20:34.354Z,28.00
2018-05-29T07:23:01.869Z,28.00
2018-05-29T07:25:29.416Z,28.10
2018-05-29T07:27:56.922Z,28.10
2018-05-29T07:30:24.467Z,28.10
2018-05-29T07:32:51.972Z,28.20
2018-05-29T07:35:20.285Z,28.40
2018-05-29T07:37:48.551Z,28.40
2018-05-29T07:40:16.855Z,28.50
2018-05-29T07:42:44.369Z,28.40
2018-05-29T07:45:11.940Z,28.50
2018-05-29T07:47:39.412Z,28.60
2018-05-29T07:50:06.966Z,28.70
2018-05-29T07:52:35.246Z,29.00
2018-05-29T07:55:03.663Z,29.10
2018-05-29T07:57:33.921Z,29.00
2018-05-29T08:00:01.435Z,29.10
2018-05-29T08:02:28.972Z,29.10
2018-05-29T08:04:57.243Z,29.20
2018-05-29T08:07:25.547Z,29.30
2018-05-29T08:09:53.078Z,29.20
2018-05-29T08:12:20.622Z,29.30
2018-05-29T08:14:48.127Z,29.30
2018-05-29T08:17:15.659Z,29.40
2018-05-29T08:19:43.171Z,29.50
2018-05-29T08:22:10.707Z,29.60
2018-05-29T08:24:38.221Z,29.60
2018-05-29T08:27:05.933Z,29.70
2018-05-29T08:29:33.442Z,29.70
2018-05-29T08:32:01.763Z,29.80
2018-05-29T08:34:29.271Z,29.80
2018-05-29T08:36:56.807Z,29.90
2018-05-29T08:39:24.326Z,29.90
2018-05-29T08:41:51.868Z,30.00
2018-05-29T08:44:19.382Z,30.00
2018-05-29T08:46:46.939Z,30.00
2018-05-29T08:49:14.435Z,30.00
2018-05-29T08:51:41.937Z,30.10
2018-05-29T08:54:09.482Z,30.20
2018-05-29T08:56:36.990Z,30.30
2018-05-29T08:59:04.532Z,30.30
2018-05-29T09:01:32.031Z,30.30
2018-05-29T09:04:00.358Z,30.50
2018-05-29T09:06:27.863Z,30.40
2018-05-29T09:08:55.404Z,30.60
2018-05-29T09:11:22.899Z,30.70
2018-05-29T09:13:51.196Z,30.70
2018-05-29T09:16:18.698Z,30.70
2018-05-29T09:18:48.178Z,30.70
2018-05-29T09:21:15.690Z,30.70
2018-05-29T09:23:43.231Z,30.70
2018-05-29T09:26:10.730Z,30.70
2018-05-29T09:28:38.267Z,30.70
2018-05-29T09:31:05.778Z,30.80
2018-05-29T09:33:33.368Z,30.80
2018-05-29T09:36:00.883Z,30.90
2018-05-29T09:38:28.388Z,30.90
2018-05-29T09:40:56.698Z,31.00
2018-05-29T09:43:24.270Z,30.90
2018-05-29T09:45:51.837Z,30.90
2018-05-29T09:48:19.360Z,30.90
2018-05-29T09:50:46.878Z,30.70
2018-05-29T09:53:14.371Z,30.80
2018-05-29T09:55:42.676Z,30.90
2018-05-29T09:58:10.196Z,30.90
2018-05-29T10:00:40.558Z,30.90
2018-05-29T10:03:08.086Z,31.00
2018-05-29T10:05:36.411Z,31.00
2018-05-29T10:08:03.906Z,31.00
2018-05-29T10:10:31.490Z,31.00
2018-05-29T10:12:59.766Z,31.00
2018-05-29T10:15:28.050Z,30.60
2018-05-29T10:17:56.360Z,30.70
2018-05-29T10:20:23.864Z,30.70
2018-05-29T10:22:51.428Z,30.80
2018-05-29T10:25:19.018Z,30.80
2018-05-29T10:27:46.535Z,30.90
2018-05-29T10:30:14.850Z,30.90
2018-05-29T10:32:42.468Z,30.90
2018-05-29T10:35:10.042Z,30.80
2018-05-29T10:37:38.338Z,30.80
2018-05-29T10:40:05.836Z,30.90
2018-05-29T10:42:33.370Z,30.80
2018-05-29T10:45:00.870Z,30.90
2018-05-29T10:47:28.399Z,30.80
2018-05-29T10:49:55.901Z,30.80
2018-05-29T10:52:23.432Z,30.90
2018-05-29T10:54:50.964Z,31.00
2018-05-29T10:57:18.616Z,31.00
2018-05-29T10:59:46.175Z,31.00
2018-05-29T11:02:13.706Z,31.00
2018-05-29T11:04:41.210Z,31.00
2018-05-29T11:07:08.776Z,31.00
2018-05-29T11:09:36.264Z,30.90
2018-05-29T11:12:03.865Z,31.00
2018-05-29T11:14:32.123Z,30.90
2018-05-29T11:16:59.657Z,30.90
2018-05-29T11:19:27.162Z,30.90
2018-05-29T11:21:54.691Z,30.90
2018-05-29T11:24:22.184Z,30.80
2018-05-29T11:26:49.722Z,30.80
2018-05-29T11:29:17.220Z,30.80
2018-05-29T11:31:44.753Z,30.80
2018-05-29T11:34:12.297Z,30.80
2018-05-29T11:36:39.825Z,30.80
2018-05-29T11:39:07.383Z,30.80
2018-05-29T11:41:34.875Z,30.80
2018-05-29T11:44:03.230Z,30.70
2018-05-29T11:46:30.740Z,30.70
2018-05-29T11:48:58.283Z,30.70
2018-05-29T11:51:26.558Z,30.60
2018-05-29T11:53:54.089Z,30.60
2018-05-29T11:56:21.589Z,30.60
2018-05-29T11:58:49.168Z,30.60
2018-05-29T12:01:17.473Z,30.60
2018-05-29T12:03:45.771Z,30.60
2018-05-29T12:06:13.316Z,30.50
2018-05-29T12:08:40.810Z,30.60
2018-05-29T12:11:08.379Z,30.50
2018-05-29T12:13:35.927Z,30.60
2018-05-29T12:16:04.260Z,30.60
2018-05-29T12:18:31.776Z,30.60
2018-05-29T12:20:59.280Z,30.60
2018-05-29T12:23:26.826Z,30.60
2018-05-29T12:25:54.332Z,30.70
2018-05-29T12:28:22.640Z,30.80
2018-05-29T12:30:50.166Z,30.80
2018-05-29T12:33:18.494Z,30.80
2018-05-29T12:35:46.027Z,30.80
2018-05-29T12:38:13.578Z,30.80
2018-05-29T12:40:41.083Z,31.00
2018-05-29T12:43:09.400Z,31.70
2018-05-29T12:45:37.685Z,32.40
2018-05-29T12:48:05.996Z,33.10
2018-05-29T12:50:33.551Z,33.10
2018-05-29T12:53:01.111Z,33.50
2018-05-29T12:55:28.620Z,34.40
2018-05-29T12:57:56.145Z,35.00
2018-05-29T13:00:23.691Z,35.50
2018-05-29T13:02:51.206Z,36.00
2018-05-29T13:05:18.762Z,36.50
2018-05-29T13:07:47.055Z,37.30
2018-05-29T13:10:15.366Z,37.60
2018-05-29T13:12:42.890Z,37.50
2018-05-29T13:15:10.448Z,38.00
2018-05-29T13:17:37.967Z,38.60
2018-05-29T13:20:05.500Z,39.10
2018-05-29T13:22:33.026Z,39.60
2018-05-29T13:25:01.325Z,40.50
2018-05-29T13:27:28.814Z,40.40
2018-05-29T13:29:56.352Z,40.80
2018-05-29T13:32:23.884Z,41.20
2018-05-29T13:34:51.519Z,41.70
2018-05-29T13:37:19.011Z,42.00
2018-05-29T13:39:46.545Z,42.40
2018-05-29T13:42:14.094Z,42.60
2018-05-29T13:44:41.594Z,43.00
2018-05-29T13:47:09.137Z,42.90
2018-05-29T13:49:38.462Z,43.00
2018-05-29T13:52:06.015Z,43.30
2018-05-29T13:54:33.517Z,43.70
2018-05-29T13:57:01.052Z,44.00
2018-05-29T13:59:28.558Z,44.20
2018-05-29T14:01:56.103Z,44.50
2018-05-29T14:04:24.389Z,44.90
2018-05-29T14:06:52.686Z,45.10
2018-05-29T14:09:20.194Z,45.10
2018-05-29T14:11:47.735Z,45.40
2018-05-29T14:14:15.294Z,45.40
2018-05-29T14:16:42.796Z,45.40
2018-05-29T14:19:10.388Z,45.60
2018-05-29T14:21:37.905Z,45.80
2018-05-29T14:24:05.622Z,45.90
2018-05-29T14:26:33.139Z,46.00
2018-05-29T14:29:01.466Z,44.20
2018-05-29T14:31:28.982Z,44.10
2018-05-29T14:33:56.568Z,44.70
2018-05-29T14:36:24.074Z,45.00
2018-05-29T14:38:51.621Z,45.30
2018-05-29T14:41:19.120Z,45.60
2018-05-29T14:43:47.505Z,45.90
2018-05-29T14:46:14.958Z,45.90
2018-05-29T14:48:42.520Z,45.90
2018-05-29T14:51:10.794Z,44.50
2018-05-29T14:53:39.215Z,43.10
2018-05-29T14:56:06.726Z,43.00
2018-05-29T14:58:35.042Z,44.10
2018-05-29T15:01:02.612Z,44.10
2018-05-29T15:03:30.124Z,44.70
2018-05-29T15:05:58.442Z,46.10
2018-05-29T15:08:25.947Z,46.00
2018-05-29T15:10:53.494Z,46.30
2018-05-29T15:13:21.114Z,46.60
2018-05-29T15:15:48.675Z,47.10
2018-05-29T15:18:16.190Z,47.20
2018-05-29T15:20:43.742Z,47.20
2018-05-29T15:23:11.358Z,47.60
2018-05-29T15:25:38.903Z,47.70
2018-05-29T15:28:06.416Z,47.00
2018-05-29T15:30:33.951Z,47.60
2018-05-29T15:33:01.494Z,47.80
2018-05-29T15:35:29.083Z,46.80
2018-05-29T15:37:57.286Z,45.80
2018-05-29T15:40:24.795Z,46.20
2018-05-29T15:42:52.910Z,46.50
2018-05-29T15:45:20.452Z,47.00
2018-05-29T15:47:47.995Z,47.50
2018-05-29T15:50:15.526Z,47.60
2018-05-29T15:52:43.096Z,47.80
2018-05-29T15:55:10.645Z,47.80
2018-05-29T15:57:38.185Z,47.60
2018-05-29T16:00:05.731Z,47.60
2018-05-29T16:02:34.003Z,47.70
2018-05-29T16:05:02.453Z,47.70
2018-05-29T16:07:29.984Z,47.80
2018-05-29T16:09:57.490Z,47.90
2018-05-29T16:12:25.039Z,47.70
2018-05-29T16:14:52.537Z,47.70
2018-05-29T16:17:20.136Z,47.60
2018-05-29T16:19:47.668Z,46.10
2018-05-29T16:22:15.282Z,44.20
2018-05-29T16:24:42.834Z,42.80
2018-05-29T16:27:10.407Z,41.50
2018-05-29T16:29:37.936Z,40.40
2018-05-29T16:32:05.492Z,39.50
2018-05-29T16:34:33.005Z,38.70
2018-05-29T16:37:00.548Z,38.00
2018-05-29T16:39:28.043Z,37.40
2018-05-29T16:41:55.587Z,36.90
2018-05-29T16:44:23.883Z,35.90
2018-05-29T16:46:51.395Z,35.90
2018-05-29T16:49:18.961Z,35.60
2018-05-29T16:51:47.287Z,35.00
2018-05-29T16:54:14.820Z,35.00
2018-05-29T16:56:42.413Z,34.80
2018-05-29T16:59:11.006Z,34.60
2018-05-29T17:01:38.533Z,34.30
2018-05-29T17:04:06.042Z,34.10
2018-05-29T17:06:33.624Z,33.90
2018-05-29T17:09:01.896Z,33.50
2018-05-29T17:11:29.455Z,33.50
2018-05-29T17:13:56.962Z,33.30
2018-05-29T17:16:24.537Z,33.20
2018-05-29T17:18:52.043Z,33.00
2018-05-29T17:21:19.579Z,32.90
2018-05-29T17:23:47.101Z,32.80
2018-05-29T17:26:14.657Z,32.60
2018-05-29T17:28:42.282Z,32.50
2018-05-29T17:31:10.602Z,32.10
2018-05-29T17:33:38.118Z,32.20
2018-05-29T17:36:06.382Z,31.90
2018-05-29T17:38:33.926Z,31.90
2018-05-29T17:41:01.439Z,31.80
2018-05-29T17:43:29.871Z,31.60
2018-05-29T17:45:57.385Z,31.60
2018-05-29T17:48:24.936Z,31.50
2018-05-29T17:50:52.452Z,31.40
2018-05-29T17:53:21.413Z,31.30
2018-05-29T17:55:48.924Z,31.30
2018-05-29T17:58:17.266Z,31.20
2018-05-29T18:00:44.774Z,31.10
2018-05-29T18:03:13.081Z,31.10
2018-05-29T18:05:40.592Z,31.00
2018-05-29T18:08:08.947Z,30.90
2018-05-29T18:10:36.437Z,30.90
2018-05-29T18:13:04.746Z,30.80
2018-05-29T18:15:32.256Z,30.80
2018-05-29T18:18:00.571Z,30.60
2018-05-29T18:20:28.099Z,30.60
2018-05-29T18:22:55.649Z,30.50
2018-05-29T18:25:23.161Z,30.50
2018-05-29T18:27:50.709Z,30.40
2018-05-29T18:30:18.278Z,30.30
2018-05-29T18:32:46.047Z,30.20
2018-05-29T18:35:13.554Z,30.20
2018-05-29T18:37:41.087Z,30.10
2018-05-29T18:40:08.590Z,30.10
2018-05-29T18:42:36.089Z,30.00
2018-05-29T18:45:04.391Z,29.80
2018-05-29T18:47:33.721Z,29.80
2018-05-29T18:50:02.058Z,29.70
2018-05-29T18:52:29.560Z,29.70
2018-05-29T18:54:58.068Z,29.60
2018-05-29T18:57:25.609Z,29.50
2018-05-29T18:59:53.172Z,29.40
2018-05-29T19:02:20.675Z,29.30
2018-05-29T19:04:48.219Z,29.20
2018-05-29T19:07:15.746Z,29.20
2018-05-29T19:09:43.287Z,29.10
2018-05-29T19:12:11.573Z,29.00
2018-05-29T19:14:39.898Z,29.00
2018-05-29T19:17:07.487Z,29.00
2018-05-29T19:19:34.974Z,29.00
2018-05-29T19:22:02.486Z,28.90
2018-05-29T19:24:30.040Z,28.80
2018-05-29T19:26:57.561Z,28.80
2018-05-29T19:29:25.119Z,28.80
2018-05-29T19:31:52.645Z,28.70
2018-05-29T19:34:20.163Z,28.60
2018-05-29T19:36:47.718Z,28.60
2018-05-29T19:39:15.374Z,28.50
2018-05-29T19:41:42.895Z,28.50
2018-05-29T19:44:11.192Z,28.40
2018-05-29T19:46:38.694Z,28.40
2018-05-29T19:49:06.266Z,28.30
2018-05-29T19:51:33.826Z,28.30
2018-05-29T19:54:01.349Z,28.20
2018-05-29T19:56:28.913Z,28.10
2018-05-29T19:58:56.437Z,28.20
2018-05-29T20:01:23.999Z,28.20
2018-05-29T20:03:52.256Z,28.00
2018-05-29T20:06:20.541Z,28.00
2018-05-29T20:08:48.863Z,27.90
2018-05-29T20:11:16.413Z,27.90
2018-05-29T20:13:44.005Z,27.90
2018-05-29T20:16:11.521Z,27.80
2018-05-29T20:18:39.059Z,27.80
2018-05-29T20:21:07.353Z,27.70
2018-05-29T20:23:34.895Z,27.70
2018-05-29T20:26:02.397Z,27.80
2018-05-29T20:28:29.959Z,27.70
2018-05-29T20:30:57.481Z,27.70
2018-05-29T20:33:25.025Z,27.70
2018-05-29T20:35:53.290Z,27.70
2018-05-29T20:38:21.611Z,27.70
2018-05-29T20:40:49.143Z,27.70
2018-05-29T20:43:17.467Z,27.60
2018-05-29T20:45:44.998Z,27.60
2018-05-29T20:48:12.493Z,27.60
2018-05-29T20:50:40.037Z,27.50
2018-05-29T20:53:07.536Z,27.50
2018-05-29T20:55:35.085Z,27.50
2018-05-29T20:58:02.609Z,27.40
2018-05-29T21:00:30.158Z,27.40
2018-05-29T21:02:57.690Z,27.40
2018-05-29T21:05:25.224Z,27.40
2018-05-29T21:07:52.730Z,27.40
2018-05-29T21:10:20.276Z,27.30
2018-05-29T21:12:47.774Z,27.30
2018-05-29T21:15:15.315Z,27.30
2018-05-29T21:17:42.839Z,27.20
2018-05-29T21:20:10.393Z,27.20
2018-05-29T21:22:38.663Z,27.00
2018-05-29T21:25:06.976Z,26.90
2018-05-29T21:27:34.480Z,26.90
2018-05-29T21:30:02.026Z,26.80
2018-05-29T21:32:29.525Z,26.80
2018-05-29T21:34:57.846Z,26.60
2018-05-29T21:37:25.378Z,26.60
2018-05-29T21:39:52.942Z,26.60
2018-05-29T21:42:20.470Z,26.50
2018-05-29T21:44:47.971Z,26.50
2018-05-29T21:47:15.526Z,26.50
2018-05-29T21:49:43.042Z,26.40
2018-05-29T21:52:10.603Z,26.30
2018-05-29T21:54:38.104Z,26.30
2018-05-29T21:57:05.668Z,26.20
2018-05-29T21:59:33.227Z,26.20
2018-05-29T22:02:00.770Z,26.20
2018-05-29T22:04:28.335Z,26.20
2018-05-29T22:06:55.881Z,26.00
2018-05-29T22:09:25.228Z,25.90
2018-05-29T22:11:52.791Z,25.80
2018-05-29T22:14:20.303Z,25.80
2018-05-29T22:16:47.850Z,25.70
2018-05-29T22:19:16.121Z,25.50
2018-05-29T22:21:44.423Z,25.40
2018-05-29T22:24:11.937Z,25.40
2018-05-29T22:26:39.465Z,25.30
2018-05-29T22:29:06.965Z,25.30
2018-05-29T22:31:34.501Z,25.30
2018-05-29T22:34:02.007Z,25.20
2018-05-29T22:36:29.559Z,25.20
2018-05-29T22:38:57.834Z,25.10
2018-05-29T22:41:26.095Z,25.10
2018-05-29T22:43:53.636Z,25.10
2018-05-29T22:46:21.142Z,25.20
2018-05-29T22:48:48.680Z,25.10
2018-05-29T22:51:16.946Z,25.10
2018-05-29T22:53:44.474Z,25.10
2018-05-29T22:56:11.992Z,25.10
2018-05-29T22:58:40.327Z,25.20
2018-05-29T23:01:07.831Z,25.10
2018-05-29T23:03:36.138Z,25.20
2018-05-29T23:06:03.638Z,25.10
2018-05-29T23:08:31.178Z,25.10
2018-05-29T23:10:59.107Z,25.20
2018-05-29T23:13:26.634Z,25.10
2018-05-29T23:15:54.899Z,25.00
2018-05-29T23:18:22.429Z,24.90
2018-05-29T23:20:49.932Z,25.00
2018-05-29T23:23:18.240Z,24.90
2018-05-29T23:25:45.814Z,24.90
2018-05-29T23:28:13.338Z,24.90
2018-05-29T23:30:41.609Z,24.70
2018-05-29T23:33:09.925Z,24.60
2018-05-29T23:35:37.465Z,24.60
2018-05-29T23:38:04.964Z,24.60
2018-05-29T23:40:32.490Z,24.50
2018-05-29T23:42:59.984Z,24.40
2018-05-29T23:45:27.514Z,24.40
2018-05-29T23:47:55.008Z,24.30
2018-05-29T23:50:23.311Z,24.30
2018-05-29T23:52:51.574Z,24.30
2018-05-29T23:55:19.878Z,24.30
2018-05-29T23:57:47.370Z,24.20
